createdAt,value
2019-05-18T00:04:01.351Z,60.50
2019-05-18T00:09:08.020Z,60.84
2019-05-18T00:14:13.263Z,61.05
2019-05-18T00:19:18.533Z,61.65
2019-05-18T00:24:23.940Z,61.83
2019-05-18T00:29:29.603Z,62.76
2019-05-18T00:34:34.849Z,63.86
2019-05-18T00:39:40.480Z,63.63
2019-05-18T00:44:45.725Z,63.08
2019-05-18T00:49:51.814Z,63.01
2019-05-18T00:54:57.062Z,63.03
2019-05-18T01:00:02.661Z,62.84
2019-05-18T01:05:08.019Z,63.30
2019-05-18T01:10:13.764Z,64.75
2019-05-18T01:15:19.208Z,64.58
2019-05-18T01:20:24.530Z,64.79
2019-05-18T01:25:29.790Z,65.31
2019-05-18T01:30:35.036Z,65.41
2019-05-18T01:35:40.282Z,66.43
2019-05-18T01:40:45.926Z,65.85
2019-05-18T01:45:51.157Z,65.27
2019-05-18T01:50:57.474Z,66.10
2019-05-18T01:56:02.724Z,65.74
2019-05-18T02:01:07.881Z,65.50
2019-05-18T02:06:13.433Z,66.48
2019-05-18T02:11:18.741Z,66.69
2019-05-18T02:16:23.994Z,66.17
2019-05-18T02:21:29.786Z,67.33
2019-05-18T02:26:35.152Z,67.29
2019-05-18T02:31:41.654Z,66.47
2019-05-18T02:36:46.856Z,66.35
2019-05-18T02:41:52.031Z,66.90
2019-05-18T02:46:57.499Z,67.27
2019-05-18T02:52:02.684Z,68.07
2019-05-18T02:57:07.835Z,67.95
2019-05-18T03:02:13.408Z,67.33
2019-05-18T03:07:18.671Z,67.65
2019-05-18T03:12:24.236Z,68.20
2019-05-18T03:17:29.751Z,67.98
2019-05-18T03:22:35.177Z,68.67
2019-05-18T03:27:40.349Z,68.31
2019-05-18T03:32:45.833Z,69.98
2019-05-18T03:37:51.080Z,70.74
2019-05-18T03:42:57.326Z,70.21
2019-05-18T03:48:03.550Z,69.95
2019-05-18T03:53:08.684Z,69.13
2019-05-18T03:58:14.197Z,69.03
2019-05-18T04:03:19.450Z,68.44
2019-05-18T04:08:25.457Z,68.86
2019-05-18T04:13:31.171Z,69.11
2019-05-18T04:18:37.522Z,69.11
2019-05-18T04:23:42.962Z,69.09
2019-05-18T04:28:48.348Z,69.75
2019-05-18T04:33:54.439Z,70.66
2019-05-18T04:39:00.054Z,70.07
2019-05-18T04:44:05.741Z,70.60
2019-05-18T04:49:11.341Z,70.54
2019-05-18T04:54:16.973Z,70.42
2019-05-18T04:59:22.159Z,69.97
2019-05-18T05:04:27.385Z,70.98
2019-05-18T05:09:33.615Z,70.45
2019-05-18T05:14:39.139Z,70.48
2019-05-18T05:19:44.320Z,70.38
2019-05-18T05:24:49.485Z,70.56
2019-05-18T05:29:54.687Z,70.24
2019-05-18T05:34:59.829Z,70.05
2019-05-18T05:40:05.743Z,70.75
2019-05-18T05:45:11.458Z,70.91
2019-05-18T05:50:16.926Z,69.93
2019-05-18T05:55:22.356Z,69.97
2019-05-18T06:00:27.610Z,70.01
2019-05-18T06:05:34.687Z,69.01
2019-05-18T06:10:40.355Z,69.03
2019-05-18T06:15:45.611Z,69.35
2019-05-18T06:20:52.141Z,68.70
2019-05-18T06:25:58.659Z,68.81
2019-05-18T06:31:04.043Z,67.48
2019-05-18T06:36:09.686Z,66.50
2019-05-18T06:41:15.280Z,65.64
2019-05-18T06:46:20.848Z,65.41
2019-05-18T06:51:26.402Z,64.40
2019-05-18T06:56:34.128Z,64.25
2019-05-18T07:01:39.398Z,63.77
2019-05-18T07:06:44.653Z,64.01
2019-05-18T07:11:50.224Z,63.57
2019-05-18T07:16:55.476Z,63.59
2019-05-18T07:22:00.734Z,63.46
2019-05-18T07:27:06.311Z,63.16
2019-05-18T07:32:11.566Z,63.46
2019-05-18T07:37:16.793Z,59.10
2019-05-18T07:42:25.390Z,58.20
2019-05-18T07:47:31.054Z,58.36
2019-05-18T07:52:36.295Z,58.65
2019-05-18T07:57:41.571Z,57.76
2019-05-18T08:02:47.094Z,56.59
2019-05-18T08:07:52.352Z,57.03
2019-05-18T08:12:58.074Z,56.31
2019-05-18T08:18:04.871Z,56.74
2019-05-18T08:23:10.195Z,55.12
2019-05-18T08:28:15.480Z,55.56
2019-05-18T08:33:20.733Z,54.78
2019-05-18T08:38:26.665Z,53.85
2019-05-18T08:43:32.218Z,54.30
2019-05-18T08:48:38.534Z,54.61
2019-05-18T08:53:43.770Z,54.65
2019-05-18T08:58:49.390Z,53.54
2019-05-18T09:03:56.535Z,52.94
2019-05-18T09:09:02.401Z,54.93
2019-05-18T09:14:09.842Z,53.97
2019-05-18T09:19:16.283Z,52.38
2019-05-18T09:24:22.587Z,53.09
2019-05-18T09:29:27.816Z,53.03
2019-05-18T09:34:33.088Z,53.21
2019-05-18T09:39:38.278Z,53.37
2019-05-18T09:44:43.566Z,53.06
2019-05-18T09:49:49.941Z,53.07
2019-05-18T09:54:55.203Z,53.05
2019-05-18T10:00:00.488Z,52.13
2019-05-18T10:05:06.121Z,51.70
2019-05-18T10:10:11.964Z,52.12
2019-05-18T10:15:17.319Z,52.05
2019-05-18T10:20:22.779Z,52.42
2019-05-18T10:25:28.048Z,52.34
2019-05-18T10:30:33.301Z,52.22
2019-05-18T10:35:38.552Z,51.34
2019-05-18T10:40:43.916Z,51.73
2019-05-18T10:45:49.214Z,51.40
2019-05-18T10:50:54.476Z,52.37
2019-05-18T10:55:59.671Z,52.54
2019-05-18T11:01:05.771Z,51.22
2019-05-18T11:06:11.555Z,51.36
2019-05-18T11:11:16.809Z,51.13
2019-05-18T11:16:22.053Z,49.59
2019-05-18T11:21:27.309Z,50.68
2019-05-18T11:26:32.600Z,49.50
2019-05-18T11:31:38.248Z,49.71
2019-05-18T11:36:43.869Z,49.02
2019-05-18T11:41:49.432Z,48.99
2019-05-18T11:46:54.713Z,48.87
2019-05-18T11:52:00.123Z,47.73
2019-05-18T11:57:05.538Z,47.41
2019-05-18T12:02:11.146Z,48.21
2019-05-18T12:07:16.392Z,47.34
2019-05-18T12:12:22.307Z,47.14
2019-05-18T12:17:28.236Z,48.14
2019-05-18T12:22:33.475Z,46.25
2019-05-18T12:27:39.289Z,46.77
2019-05-18T12:32:44.657Z,45.76
2019-05-18T12:37:49.907Z,45.53
2019-05-18T12:42:55.152Z,44.66
2019-05-18T12:48:01.345Z,44.27
2019-05-18T12:53:06.726Z,42.89
2019-05-18T12:58:12.011Z,42.85
2019-05-18T13:03:17.556Z,43.42
2019-05-18T13:08:22.673Z,41.94
2019-05-18T13:13:28.314Z,40.96
2019-05-18T13:18:34.411Z,40.69
2019-05-18T13:23:39.956Z,39.59
2019-05-18T13:28:45.517Z,39.43
2019-05-18T13:33:57.211Z,38.89
2019-05-18T13:39:02.783Z,36.63
2019-05-18T13:44:09.142Z,36.63
2019-05-18T13:49:14.471Z,36.61
2019-05-18T13:54:20.067Z,34.76
2019-05-18T13:59:25.326Z,35.31
2019-05-18T14:04:31.782Z,34.84
2019-05-18T14:09:38.262Z,34.65
2019-05-18T14:14:43.549Z,34.00
2019-05-18T14:19:52.866Z,34.57
2019-05-18T14:24:58.630Z,34.82
2019-05-18T14:30:04.219Z,34.58
2019-05-18T14:35:09.933Z,35.14
2019-05-18T14:40:15.872Z,34.20
2019-05-18T14:45:22.133Z,33.72
2019-05-18T14:50:27.375Z,33.16
2019-05-18T14:55:34.107Z,34.05
2019-05-18T15:00:39.769Z,32.78
2019-05-18T15:05:45.011Z,33.23
2019-05-18T15:10:50.842Z,32.44
2019-05-18T15:15:56.120Z,31.64
2019-05-18T15:21:01.746Z,31.43
2019-05-18T15:26:07.267Z,32.73
2019-05-18T15:31:12.595Z,32.51
2019-05-18T15:36:17.848Z,33.51
2019-05-18T15:41:23.427Z,32.84
2019-05-18T15:46:29.227Z,32.65
2019-05-18T15:51:35.985Z,33.77
2019-05-18T15:56:44.186Z,33.77
2019-05-18T16:01:48.738Z,33.13
2019-05-18T16:06:54.031Z,33.83
2019-05-18T16:11:59.550Z,33.03
2019-05-18T16:17:04.808Z,33.05
2019-05-18T16:22:10.887Z,33.11
2019-05-18T16:27:16.675Z,33.84
2019-05-18T16:32:22.053Z,32.76
2019-05-18T16:37:27.635Z,33.16
2019-05-18T16:42:33.547Z,33.59
2019-05-18T16:47:40.093Z,33.96
2019-05-18T16:52:45.898Z,33.36
2019-05-18T16:57:52.652Z,33.62
2019-05-18T17:02:58.145Z,33.29
2019-05-18T17:08:04.602Z,33.08
2019-05-18T17:13:09.841Z,33.42
2019-05-18T17:18:15.183Z,33.02
2019-05-18T17:23:20.490Z,33.01
2019-05-18T17:28:26.042Z,33.21
2019-05-18T17:33:33.008Z,33.76
2019-05-18T17:38:39.101Z,34.85
2019-05-18T17:43:44.701Z,37.08
2019-05-18T17:48:50.831Z,38.06
2019-05-18T17:53:57.054Z,38.66
2019-05-18T17:59:02.792Z,39.43
2019-05-18T18:04:08.889Z,39.75
2019-05-18T18:09:14.481Z,40.59
2019-05-18T18:14:19.742Z,41.71
2019-05-18T18:19:25.711Z,42.74
2019-05-18T18:24:31.383Z,42.97
2019-05-18T18:29:36.648Z,43.50
2019-05-18T18:34:43.259Z,44.23
2019-05-18T18:39:48.508Z,44.77
2019-05-18T18:44:54.435Z,45.60
2019-05-18T18:50:00.049Z,46.30
2019-05-18T18:55:05.937Z,47.36
2019-05-18T19:00:12.032Z,48.11
2019-05-18T19:05:17.666Z,48.40
2019-05-18T19:10:23.556Z,49.15
2019-05-18T19:15:30.125Z,48.99
2019-05-18T19:20:35.413Z,48.91
2019-05-18T19:25:40.790Z,49.03
2019-05-18T19:30:46.948Z,49.52
2019-05-18T19:35:52.500Z,49.49
2019-05-18T19:40:57.951Z,49.95
2019-05-18T19:46:03.244Z,50.30
2019-05-18T19:51:08.498Z,50.15
2019-05-18T19:56:13.742Z,50.27
2019-05-18T20:01:19.707Z,50.39
2019-05-18T20:06:25.031Z,50.51
2019-05-18T20:11:30.317Z,50.58
2019-05-18T20:16:35.747Z,50.47
2019-05-18T20:21:41.052Z,50.58
2019-05-18T20:26:46.305Z,51.50
2019-05-18T20:31:51.631Z,52.27
2019-05-18T20:36:57.990Z,52.61
2019-05-18T20:42:03.276Z,53.28
2019-05-18T20:47:08.948Z,52.69
2019-05-18T20:52:14.257Z,52.55
2019-05-18T20:57:20.899Z,53.19
2019-05-18T21:02:26.172Z,54.07
2019-05-18T21:07:31.717Z,54.42
2019-05-18T21:12:37.187Z,54.69
2019-05-18T21:17:43.512Z,54.86
2019-05-18T21:22:49.111Z,54.06
2019-05-18T21:27:54.642Z,54.52
2019-05-18T21:32:59.915Z,54.62
2019-05-18T21:38:05.490Z,54.39
2019-05-18T21:43:10.976Z,54.93
2019-05-18T21:48:16.257Z,54.65
2019-05-18T21:53:21.521Z,54.39
2019-05-18T21:58:26.782Z,54.14
2019-05-18T22:03:32.800Z,54.16
2019-05-18T22:08:38.430Z,53.73
2019-05-18T22:13:43.673Z,54.09
2019-05-18T22:18:49.094Z,54.99
2019-05-18T22:23:54.681Z,55.63
2019-05-18T22:28:59.948Z,55.83
2019-05-18T22:34:05.550Z,55.99
2019-05-18T22:39:10.848Z,56.11
2019-05-18T22:44:16.231Z,57.67
2019-05-18T22:49:21.503Z,57.31
2019-05-18T22:54:26.765Z,58.14
2019-05-18T22:59:32.027Z,58.64
2019-05-18T23:04:37.476Z,58.42
2019-05-18T23:09:42.912Z,58.62
2019-05-18T23:14:48.468Z,58.85
2019-05-18T23:19:54.612Z,59.55
2019-05-18T23:24:59.881Z,59.46
2019-05-18T23:30:05.871Z,60.75
2019-05-18T23:35:11.217Z,60.72
2019-05-18T23:40:16.919Z,62.16
2019-05-18T23:45:22.510Z,62.58
2019-05-18T23:50:27.910Z,62.35
2019-05-18T23:55:33.372Z,62.77
